Elkhorn, West Virginia
Current Conditions -  °F | °C
As of 9:52 AM on Thursday 23 Oct 2014 (Local Time) from KBLF Reporting Station
Overcast Overcast  
Wind Chill: 40°   Ceiling: 1100
Heat Index: 44°   Visibility: 10mi
Dew Point: 37°   Wind: 7mph
Humidity: 76%   Direction: 330°NNW
Pressure: 30.19"   Gusts: NA
Location:  37.39°N, 81.41°W
Report Text: KBLF 231352Z AUTO 33006KT 10SM OVC011 07/03 A3019 RMK AO2 SLP224 T00670028
Loading
Personal Weather Stations






























Interactive Weather Map
Tropical Storm Tracking
New forecast layout! Learn more

10-Day Weather Forecast

Advertisements
Track Severe Weather on mobile